sensor_id;sensor_type;location;lat;lon;timestamp;P1;durP1;ratioP1;P2;durP2;ratioP2
74223;SDS011;62585;49.706;18.216;2022-12-16T00:01:05;61.13;;;21.85;;
74223;SDS011;62585;49.706;18.216;2022-12-16T00:03:32;67.78;;;23.20;;
74223;SDS011;62585;49.706;18.216;2022-12-16T00:05:59;60.25;;;19.77;;
74223;SDS011;62585;49.706;18.216;2022-12-16T00:08:28;55.75;;;19.65;;
74223;SDS011;62585;49.706;18.216;2022-12-16T00:10:57;59.78;;;19.52;;
74223;SDS011;62585;49.706;18.216;2022-12-16T00:13:24;69.22;;;23.15;;
74223;SDS011;62585;49.706;18.216;2022-12-16T00:15:50;68.35;;;22.95;;
74223;SDS011;62585;49.706;18.216;2022-12-16T00:18:16;63.22;;;22.10;;
74223;SDS011;62585;49.706;18.216;2022-12-16T00:20:47;62.17;;;20.33;;
74223;SDS011;62585;49.706;18.216;2022-12-16T00:23:14;58.40;;;21.15;;
74223;SDS011;62585;49.706;18.216;2022-12-16T00:25:44;63.85;;;20.65;;
74223;SDS011;62585;49.706;18.216;2022-12-16T00:28:11;63.17;;;20.90;;
74223;SDS011;62585;49.706;18.216;2022-12-16T00:35:30;59.65;;;21.45;;
74223;SDS011;62585;49.706;18.216;2022-12-16T00:37:56;54.80;;;19.95;;
74223;SDS011;62585;49.706;18.216;2022-12-16T00:40:22;62.72;;;22.42;;
74223;SDS011;62585;49.706;18.216;2022-12-16T00:42:48;69.35;;;23.90;;
74223;SDS011;62585;49.706;18.216;2022-12-16T00:45:14;67.25;;;21.85;;
74223;SDS011;62585;49.706;18.216;2022-12-16T00:47:39;65.72;;;23.38;;
74223;SDS011;62585;49.706;18.216;2022-12-16T00:50:05;80.88;;;25.95;;
74223;SDS011;62585;49.706;18.216;2022-12-16T00:52:32;60.70;;;20.88;;
74223;SDS011;62585;49.706;18.216;2022-12-16T00:54:57;56.10;;;22.65;;
74223;SDS011;62585;49.706;18.216;2022-12-16T00:57:23;63.33;;;21.98;;
74223;SDS011;62585;49.706;18.216;2022-12-16T00:59:49;61.55;;;23.73;;
74223;SDS011;62585;49.706;18.216;2022-12-16T01:02:15;65.65;;;23.88;;
74223;SDS011;62585;49.706;18.216;2022-12-16T01:04:41;73.97;;;24.05;;
74223;SDS011;62585;49.706;18.216;2022-12-16T01:07:07;66.28;;;24.17;;
74223;SDS011;62585;49.706;18.216;2022-12-16T01:09:33;73.38;;;25.75;;
74223;SDS011;62585;49.706;18.216;2022-12-16T01:11:58;73.38;;;25.52;;
74223;SDS011;62585;49.706;18.216;2022-12-16T01:14:24;60.25;;;22.20;;
74223;SDS011;62585;49.706;18.216;2022-12-16T01:16:50;69.95;;;25.05;;
74223;SDS011;62585;49.706;18.216;2022-12-16T01:19:16;75.40;;;25.90;;
74223;SDS011;62585;49.706;18.216;2022-12-16T01:21:41;58.92;;;22.90;;
74223;SDS011;62585;49.706;18.216;2022-12-16T01:24:07;68.45;;;25.08;;
74223;SDS011;62585;49.706;18.216;2022-12-16T01:26:34;74.35;;;23.58;;
74223;SDS011;62585;49.706;18.216;2022-12-16T01:29:01;75.80;;;25.98;;
74223;SDS011;62585;49.706;18.216;2022-12-16T01:31:27;72.65;;;24.17;;
74223;SDS011;62585;49.706;18.216;2022-12-16T01:33:53;74.47;;;24.23;;
74223;SDS011;62585;49.706;18.216;2022-12-16T01:36:18;62.72;;;23.67;;
74223;SDS011;62585;49.706;18.216;2022-12-16T01:38:44;63.17;;;24.85;;
74223;SDS011;62585;49.706;18.216;2022-12-16T01:41:12;69.18;;;25.70;;
74223;SDS011;62585;49.706;18.216;2022-12-16T01:43:39;71.10;;;25.58;;
74223;SDS011;62585;49.706;18.216;2022-12-16T01:46:07;65.35;;;24.02;;
74223;SDS011;62585;49.706;18.216;2022-12-16T01:53:49;70.10;;;26.40;;
74223;SDS011;62585;49.706;18.216;2022-12-16T01:56:19;82.10;;;26.42;;
74223;SDS011;62585;49.706;18.216;2022-12-16T01:58:47;66.43;;;22.95;;
74223;SDS011;62585;49.706;18.216;2022-12-16T02:01:14;72.15;;;27.42;;
74223;SDS011;62585;49.706;18.216;2022-12-16T02:03:41;72.60;;;25.90;;
74223;SDS011;62585;49.706;18.216;2022-12-16T02:06:07;62.22;;;23.08;;
74223;SDS011;62585;49.706;18.216;2022-12-16T02:08:33;63.05;;;23.67;;
74223;SDS011;62585;49.706;18.216;2022-12-16T02:11:04;65.18;;;23.92;;
74223;SDS011;62585;49.706;18.216;2022-12-16T02:13:54;60.03;;;23.13;;
74223;SDS011;62585;49.706;18.216;2022-12-16T02:44:19;50.63;;;23.55;;
74223;SDS011;62585;49.706;18.216;2022-12-16T02:46:51;72.80;;;26.48;;
74223;SDS011;62585;49.706;18.216;2022-12-16T02:51:44;62.75;;;24.08;;
74223;SDS011;62585;49.706;18.216;2022-12-16T02:54:09;60.85;;;25.92;;
74223;SDS011;62585;49.706;18.216;2022-12-16T02:56:48;56.00;;;24.25;;
74223;SDS011;62585;49.706;18.216;2022-12-16T02:59:25;57.67;;;23.77;;
74223;SDS011;62585;49.706;18.216;2022-12-16T03:04:58;54.33;;;24.35;;
74223;SDS011;62585;49.706;18.216;2022-12-16T03:07:31;58.40;;;23.65;;
74223;SDS011;62585;49.706;18.216;2022-12-16T03:10:01;58.88;;;24.45;;
74223;SDS011;62585;49.706;18.216;2022-12-16T03:12:30;57.85;;;24.52;;
74223;SDS011;62585;49.706;18.216;2022-12-16T03:14:58;59.95;;;23.92;;
74223;SDS011;62585;49.706;18.216;2022-12-16T03:17:24;59.90;;;24.23;;
74223;SDS011;62585;49.706;18.216;2022-12-16T03:20:13;60.10;;;22.13;;
74223;SDS011;62585;49.706;18.216;2022-12-16T03:22:43;61.92;;;24.48;;
74223;SDS011;62585;49.706;18.216;2022-12-16T03:25:12;59.72;;;21.70;;
74223;SDS011;62585;49.706;18.216;2022-12-16T03:30:24;48.63;;;21.17;;
74223;SDS011;62585;49.706;18.216;2022-12-16T03:33:02;54.58;;;22.67;;
74223;SDS011;62585;49.706;18.216;2022-12-16T03:35:39;66.05;;;23.27;;
74223;SDS011;62585;49.706;18.216;2022-12-16T03:38:10;55.17;;;20.80;;
74223;SDS011;62585;49.706;18.216;2022-12-16T03:40:39;55.80;;;22.80;;
74223;SDS011;62585;49.706;18.216;2022-12-16T03:43:06;63.08;;;22.05;;
74223;SDS011;62585;49.706;18.216;2022-12-16T03:45:38;46.53;;;21.80;;
74223;SDS011;62585;49.706;18.216;2022-12-16T03:48:08;50.20;;;17.83;;
74223;SDS011;62585;49.706;18.216;2022-12-16T03:50:35;50.78;;;20.17;;
74223;SDS011;62585;49.706;18.216;2022-12-16T03:53:02;55.83;;;22.42;;
74223;SDS011;62585;49.706;18.216;2022-12-16T03:55:29;60.40;;;23.27;;
74223;SDS011;62585;49.706;18.216;2022-12-16T03:57:55;50.78;;;19.90;;
74223;SDS011;62585;49.706;18.216;2022-12-16T04:00:21;54.90;;;21.98;;
74223;SDS011;62585;49.706;18.216;2022-12-16T04:02:48;52.33;;;20.85;;
74223;SDS011;62585;49.706;18.216;2022-12-16T04:05:14;54.58;;;21.70;;
74223;SDS011;62585;49.706;18.216;2022-12-16T04:07:40;46.72;;;20.30;;
74223;SDS011;62585;49.706;18.216;2022-12-16T04:10:06;53.53;;;20.15;;
74223;SDS011;62585;49.706;18.216;2022-12-16T04:12:32;56.72;;;20.95;;
74223;SDS011;62585;49.706;18.216;2022-12-16T04:15:17;58.33;;;21.20;;
74223;SDS011;62585;49.706;18.216;2022-12-16T04:18:02;52.67;;;19.75;;
74223;SDS011;62585;49.706;18.216;2022-12-16T04:20:50;48.65;;;19.90;;
74223;SDS011;62585;49.706;18.216;2022-12-16T04:23:38;46.15;;;18.48;;
74223;SDS011;62585;49.706;18.216;2022-12-16T04:26:33;63.72;;;21.60;;
74223;SDS011;62585;49.706;18.216;2022-12-16T04:29:18;45.85;;;20.52;;
74223;SDS011;62585;49.706;18.216;2022-12-16T04:31:44;44.58;;;16.38;;
74223;SDS011;62585;49.706;18.216;2022-12-16T04:34:10;45.05;;;19.98;;
74223;SDS011;62585;49.706;18.216;2022-12-16T04:36:55;54.55;;;20.83;;
74223;SDS011;62585;49.706;18.216;2022-12-16T04:42:28;43.95;;;17.33;;
74223;SDS011;62585;49.706;18.216;2022-12-16T04:45:13;39.90;;;16.35;;
74223;SDS011;62585;49.706;18.216;2022-12-16T04:47:57;44.65;;;17.83;;
74223;SDS011;62585;49.706;18.216;2022-12-16T04:50:41;42.42;;;16.77;;
74223;SDS011;62585;49.706;18.216;2022-12-16T04:53:27;43.53;;;17.42;;
74223;SDS011;62585;49.706;18.216;2022-12-16T04:56:12;41.80;;;17.35;;
74223;SDS011;62585;49.706;18.216;2022-12-16T04:58:57;45.85;;;18.73;;
74223;SDS011;62585;49.706;18.216;2022-12-16T05:01:42;42.58;;;15.98;;
74223;SDS011;62585;49.706;18.216;2022-12-16T05:04:26;38.88;;;17.30;;
74223;SDS011;62585;49.706;18.216;2022-12-16T05:07:11;36.67;;;16.00;;
74223;SDS011;62585;49.706;18.216;2022-12-16T05:09:55;45.22;;;16.75;;
74223;SDS011;62585;49.706;18.216;2022-12-16T05:12:39;37.75;;;15.52;;
74223;SDS011;62585;49.706;18.216;2022-12-16T05:15:23;47.15;;;19.63;;
74223;SDS011;62585;49.706;18.216;2022-12-16T05:18:12;43.13;;;16.08;;
74223;SDS011;62585;49.706;18.216;2022-12-16T05:20:58;42.13;;;16.75;;
74223;SDS011;62585;49.706;18.216;2022-12-16T05:23:44;42.65;;;17.52;;
74223;SDS011;62585;49.706;18.216;2022-12-16T05:26:28;44.25;;;15.98;;
74223;SDS011;62585;49.706;18.216;2022-12-16T05:29:13;43.13;;;17.88;;
74223;SDS011;62585;49.706;18.216;2022-12-16T05:31:57;39.40;;;15.32;;
74223;SDS011;62585;49.706;18.216;2022-12-16T05:34:42;49.58;;;17.40;;
74223;SDS011;62585;49.706;18.216;2022-12-16T05:37:26;47.95;;;16.88;;
74223;SDS011;62585;49.706;18.216;2022-12-16T05:40:11;48.67;;;19.58;;
74223;SDS011;62585;49.706;18.216;2022-12-16T05:42:55;49.88;;;18.20;;
74223;SDS011;62585;49.706;18.216;2022-12-16T05:45:40;38.95;;;15.88;;
74223;SDS011;62585;49.706;18.216;2022-12-16T05:48:25;40.38;;;17.45;;
74223;SDS011;62585;49.706;18.216;2022-12-16T05:51:09;42.38;;;19.05;;
74223;SDS011;62585;49.706;18.216;2022-12-16T05:53:53;35.97;;;13.57;;
74223;SDS011;62585;49.706;18.216;2022-12-16T05:56:38;41.40;;;16.35;;
74223;SDS011;62585;49.706;18.216;2022-12-16T05:59:22;36.33;;;15.60;;
74223;SDS011;62585;49.706;18.216;2022-12-16T06:02:07;41.75;;;16.90;;
74223;SDS011;62585;49.706;18.216;2022-12-16T06:04:52;41.78;;;18.85;;
74223;SDS011;62585;49.706;18.216;2022-12-16T06:07:36;43.08;;;18.73;;
74223;SDS011;62585;49.706;18.216;2022-12-16T06:10:20;48.67;;;17.65;;
74223;SDS011;62585;49.706;18.216;2022-12-16T06:13:05;45.70;;;18.20;;
74223;SDS011;62585;49.706;18.216;2022-12-16T06:15:49;40.47;;;16.63;;
74223;SDS011;62585;49.706;18.216;2022-12-16T06:18:33;42.60;;;17.73;;
74223;SDS011;62585;49.706;18.216;2022-12-16T06:21:18;32.65;;;15.35;;
74223;SDS011;62585;49.706;18.216;2022-12-16T06:24:02;41.78;;;16.60;;
74223;SDS011;62585;49.706;18.216;2022-12-16T06:26:47;41.65;;;16.35;;
74223;SDS011;62585;49.706;18.216;2022-12-16T06:29:31;44.78;;;18.17;;
74223;SDS011;62585;49.706;18.216;2022-12-16T06:32:16;38.38;;;15.98;;
74223;SDS011;62585;49.706;18.216;2022-12-16T06:35:00;37.63;;;17.65;;
74223;SDS011;62585;49.706;18.216;2022-12-16T06:37:47;43.85;;;15.75;;
74223;SDS011;62585;49.706;18.216;2022-12-16T06:40:31;46.65;;;18.83;;
74223;SDS011;62585;49.706;18.216;2022-12-16T06:43:16;39.60;;;15.13;;
74223;SDS011;62585;49.706;18.216;2022-12-16T06:46:00;45.97;;;20.50;;
74223;SDS011;62585;49.706;18.216;2022-12-16T06:48:58;45.83;;;17.40;;
74223;SDS011;62585;49.706;18.216;2022-12-16T06:51:43;46.35;;;18.60;;
74223;SDS011;62585;49.706;18.216;2022-12-16T06:54:27;46.88;;;15.73;;
74223;SDS011;62585;49.706;18.216;2022-12-16T06:57:12;46.03;;;18.63;;
74223;SDS011;62585;49.706;18.216;2022-12-16T06:59:56;39.55;;;17.17;;
74223;SDS011;62585;49.706;18.216;2022-12-16T07:02:41;43.75;;;16.67;;
74223;SDS011;62585;49.706;18.216;2022-12-16T07:05:25;43.05;;;17.50;;
74223;SDS011;62585;49.706;18.216;2022-12-16T07:08:09;52.15;;;19.00;;
74223;SDS011;62585;49.706;18.216;2022-12-16T07:10:53;53.38;;;20.13;;
74223;SDS011;62585;49.706;18.216;2022-12-16T07:13:37;45.03;;;19.80;;
74223;SDS011;62585;49.706;18.216;2022-12-16T07:16:21;46.75;;;18.75;;
74223;SDS011;62585;49.706;18.216;2022-12-16T07:19:06;57.97;;;21.27;;
74223;SDS011;62585;49.706;18.216;2022-12-16T07:21:50;29.02;;;16.02;;
74223;SDS011;62585;49.706;18.216;2022-12-16T07:24:34;54.35;;;21.08;;
74223;SDS011;62585;49.706;18.216;2022-12-16T07:27:18;51.33;;;19.67;;
74223;SDS011;62585;49.706;18.216;2022-12-16T07:30:02;53.60;;;21.13;;
74223;SDS011;62585;49.706;18.216;2022-12-16T07:32:50;52.25;;;18.50;;
74223;SDS011;62585;49.706;18.216;2022-12-16T07:35:34;57.25;;;21.70;;
74223;SDS011;62585;49.706;18.216;2022-12-16T07:38:18;48.88;;;18.70;;
74223;SDS011;62585;49.706;18.216;2022-12-16T07:41:03;56.95;;;21.63;;
74223;SDS011;62585;49.706;18.216;2022-12-16T07:43:47;49.05;;;19.00;;
74223;SDS011;62585;49.706;18.216;2022-12-16T07:46:32;43.83;;;18.05;;
74223;SDS011;62585;49.706;18.216;2022-12-16T07:49:16;44.47;;;16.83;;
74223;SDS011;62585;49.706;18.216;2022-12-16T07:52:00;55.25;;;19.73;;
74223;SDS011;62585;49.706;18.216;2022-12-16T07:54:45;44.97;;;18.25;;
74223;SDS011;62585;49.706;18.216;2022-12-16T07:57:29;39.13;;;16.70;;
74223;SDS011;62585;49.706;18.216;2022-12-16T08:00:13;41.72;;;17.70;;
74223;SDS011;62585;49.706;18.216;2022-12-16T08:02:58;47.97;;;19.23;;
74223;SDS011;62585;49.706;18.216;2022-12-16T08:05:50;46.45;;;17.88;;
74223;SDS011;62585;49.706;18.216;2022-12-16T08:08:35;47.22;;;18.77;;
74223;SDS011;62585;49.706;18.216;2022-12-16T08:11:19;44.00;;;17.38;;
74223;SDS011;62585;49.706;18.216;2022-12-16T08:14:03;44.45;;;17.70;;
74223;SDS011;62585;49.706;18.216;2022-12-16T08:16:47;43.40;;;18.20;;
74223;SDS011;62585;49.706;18.216;2022-12-16T08:19:31;43.67;;;17.92;;
74223;SDS011;62585;49.706;18.216;2022-12-16T08:22:15;46.38;;;16.92;;
74223;SDS011;62585;49.706;18.216;2022-12-16T08:25:00;41.42;;;16.15;;
74223;SDS011;62585;49.706;18.216;2022-12-16T08:27:52;35.55;;;15.05;;
74223;SDS011;62585;49.706;18.216;2022-12-16T08:30:37;37.83;;;14.98;;
74223;SDS011;62585;49.706;18.216;2022-12-16T08:33:21;44.92;;;17.13;;
74223;SDS011;62585;49.706;18.216;2022-12-16T08:36:06;40.60;;;16.83;;
74223;SDS011;62585;49.706;18.216;2022-12-16T08:38:51;40.72;;;16.63;;
74223;SDS011;62585;49.706;18.216;2022-12-16T08:41:35;40.72;;;15.15;;
74223;SDS011;62585;49.706;18.216;2022-12-16T08:44:20;39.15;;;18.02;;
74223;SDS011;62585;49.706;18.216;2022-12-16T08:47:04;38.83;;;15.13;;
74223;SDS011;62585;49.706;18.216;2022-12-16T08:49:48;44.15;;;15.25;;
74223;SDS011;62585;49.706;18.216;2022-12-16T08:52:33;35.58;;;16.73;;
74223;SDS011;62585;49.706;18.216;2022-12-16T08:55:17;37.78;;;15.50;;
74223;SDS011;62585;49.706;18.216;2022-12-16T08:58:02;36.45;;;14.98;;
74223;SDS011;62585;49.706;18.216;2022-12-16T09:00:46;34.28;;;15.18;;
74223;SDS011;62585;49.706;18.216;2022-12-16T09:03:31;36.20;;;16.67;;
74223;SDS011;62585;49.706;18.216;2022-12-16T09:06:15;34.08;;;13.40;;
74223;SDS011;62585;49.706;18.216;2022-12-16T09:08:59;42.13;;;17.20;;
74223;SDS011;62585;49.706;18.216;2022-12-16T09:11:43;33.80;;;13.82;;
74223;SDS011;62585;49.706;18.216;2022-12-16T09:14:27;39.75;;;15.65;;
74223;SDS011;62585;49.706;18.216;2022-12-16T09:17:11;29.55;;;15.52;;
74223;SDS011;62585;49.706;18.216;2022-12-16T09:19:56;36.08;;;14.18;;
74223;SDS011;62585;49.706;18.216;2022-12-16T09:22:40;41.72;;;17.13;;
74223;SDS011;62585;49.706;18.216;2022-12-16T09:25:25;28.95;;;14.02;;
74223;SDS011;62585;49.706;18.216;2022-12-16T09:28:09;29.77;;;14.10;;
74223;SDS011;62585;49.706;18.216;2022-12-16T09:30:53;31.13;;;12.73;;
74223;SDS011;62585;49.706;18.216;2022-12-16T09:33:37;29.15;;;13.13;;
74223;SDS011;62585;49.706;18.216;2022-12-16T09:36:22;38.83;;;15.23;;
74223;SDS011;62585;49.706;18.216;2022-12-16T09:39:06;33.08;;;13.98;;
74223;SDS011;62585;49.706;18.216;2022-12-16T09:44:52;30.95;;;13.73;;
74223;SDS011;62585;49.706;18.216;2022-12-16T09:47:55;35.63;;;16.02;;
74223;SDS011;62585;49.706;18.216;2022-12-16T09:50:43;40.20;;;14.55;;
74223;SDS011;62585;49.706;18.216;2022-12-16T09:53:30;40.42;;;15.63;;
74223;SDS011;62585;49.706;18.216;2022-12-16T09:56:32;35.15;;;14.57;;
74223;SDS011;62585;49.706;18.216;2022-12-16T09:59:23;31.73;;;14.50;;
74223;SDS011;62585;49.706;18.216;2022-12-16T10:02:12;42.75;;;16.35;;
74223;SDS011;62585;49.706;18.216;2022-12-16T10:05:01;38.95;;;15.00;;
74223;SDS011;62585;49.706;18.216;2022-12-16T10:07:51;32.90;;;14.15;;
74223;SDS011;62585;49.706;18.216;2022-12-16T10:10:50;38.50;;;13.85;;
74223;SDS011;62585;49.706;18.216;2022-12-16T10:13:56;43.65;;;16.60;;
74223;SDS011;62585;49.706;18.216;2022-12-16T10:22:58;40.30;;;14.93;;
74223;SDS011;62585;49.706;18.216;2022-12-16T10:29:19;37.75;;;15.48;;
74223;SDS011;62585;49.706;18.216;2022-12-16T10:35:17;36.35;;;16.75;;
74223;SDS011;62585;49.706;18.216;2022-12-16T10:38:11;48.13;;;17.27;;
74223;SDS011;62585;49.706;18.216;2022-12-16T10:41:01;36.20;;;17.25;;
74223;SDS011;62585;49.706;18.216;2022-12-16T10:43:47;41.33;;;17.23;;
74223;SDS011;62585;49.706;18.216;2022-12-16T10:46:33;33.95;;;15.27;;
74223;SDS011;62585;49.706;18.216;2022-12-16T10:49:18;43.75;;;18.63;;
74223;SDS011;62585;49.706;18.216;2022-12-16T10:52:03;46.33;;;18.90;;
74223;SDS011;62585;49.706;18.216;2022-12-16T10:54:50;34.40;;;15.63;;
74223;SDS011;62585;49.706;18.216;2022-12-16T11:00:40;42.47;;;18.00;;
74223;SDS011;62585;49.706;18.216;2022-12-16T11:03:28;44.42;;;18.92;;
74223;SDS011;62585;49.706;18.216;2022-12-16T11:06:16;36.33;;;17.77;;
74223;SDS011;62585;49.706;18.216;2022-12-16T11:09:39;38.70;;;17.00;;
74223;SDS011;62585;49.706;18.216;2022-12-16T11:12:27;45.60;;;17.80;;
74223;SDS011;62585;49.706;18.216;2022-12-16T11:15:29;46.22;;;19.05;;
74223;SDS011;62585;49.706;18.216;2022-12-16T11:18:15;57.30;;;19.58;;
74223;SDS011;62585;49.706;18.216;2022-12-16T11:24:04;40.22;;;15.98;;
74223;SDS011;62585;49.706;18.216;2022-12-16T11:27:05;49.05;;;18.23;;
74223;SDS011;62585;49.706;18.216;2022-12-16T11:30:00;34.97;;;15.57;;
74223;SDS011;62585;49.706;18.216;2022-12-16T11:32:51;40.95;;;15.68;;
74223;SDS011;62585;49.706;18.216;2022-12-16T11:35:40;37.90;;;15.55;;
74223;SDS011;62585;49.706;18.216;2022-12-16T11:38:37;43.67;;;17.17;;
74223;SDS011;62585;49.706;18.216;2022-12-16T11:41:46;32.80;;;14.38;;
74223;SDS011;62585;49.706;18.216;2022-12-16T11:44:37;36.22;;;15.93;;
74223;SDS011;62585;49.706;18.216;2022-12-16T11:47:32;45.00;;;16.27;;
74223;SDS011;62585;49.706;18.216;2022-12-16T11:50:21;42.53;;;16.60;;
74223;SDS011;62585;49.706;18.216;2022-12-16T11:53:16;44.20;;;17.08;;
74223;SDS011;62585;49.706;18.216;2022-12-16T11:56:27;39.30;;;16.73;;
74223;SDS011;62585;49.706;18.216;2022-12-16T12:02:43;32.97;;;15.15;;
74223;SDS011;62585;49.706;18.216;2022-12-16T12:11:48;36.97;;;15.57;;
74223;SDS011;62585;49.706;18.216;2022-12-16T12:14:46;34.30;;;15.88;;
74223;SDS011;62585;49.706;18.216;2022-12-16T12:24:03;39.35;;;13.68;;
74223;SDS011;62585;49.706;18.216;2022-12-16T12:27:11;36.42;;;15.68;;
74223;SDS011;62585;49.706;18.216;2022-12-16T12:30:05;30.30;;;13.75;;
74223;SDS011;62585;49.706;18.216;2022-12-16T12:35:59;37.67;;;16.05;;
74223;SDS011;62585;49.706;18.216;2022-12-16T12:47:35;34.33;;;15.07;;
74223;SDS011;62585;49.706;18.216;2022-12-16T12:50:31;34.47;;;14.90;;
74223;SDS011;62585;49.706;18.216;2022-12-16T12:59:22;29.33;;;13.80;;
74223;SDS011;62585;49.706;18.216;2022-12-16T13:02:20;30.27;;;14.77;;
74223;SDS011;62585;49.706;18.216;2022-12-16T13:05:11;33.22;;;14.45;;
74223;SDS011;62585;49.706;18.216;2022-12-16T13:13:59;30.90;;;13.77;;
74223;SDS011;62585;49.706;18.216;2022-12-16T13:22:31;27.20;;;13.52;;
74223;SDS011;62585;49.706;18.216;2022-12-16T13:28:29;34.60;;;14.52;;
74223;SDS011;62585;49.706;18.216;2022-12-16T13:31:16;34.10;;;14.10;;
74223;SDS011;62585;49.706;18.216;2022-12-16T13:34:05;33.13;;;15.70;;
74223;SDS011;62585;49.706;18.216;2022-12-16T13:37:03;52.03;;;16.55;;
74223;SDS011;62585;49.706;18.216;2022-12-16T13:43:10;34.25;;;14.77;;
74223;SDS011;62585;49.706;18.216;2022-12-16T13:46:19;29.23;;;13.05;;
74223;SDS011;62585;49.706;18.216;2022-12-16T13:55:43;39.35;;;14.88;;
74223;SDS011;62585;49.706;18.216;2022-12-16T14:01:33;24.63;;;12.63;;
74223;SDS011;62585;49.706;18.216;2022-12-16T14:04:25;29.52;;;14.05;;
74223;SDS011;62585;49.706;18.216;2022-12-16T14:07:12;31.55;;;15.23;;
74223;SDS011;62585;49.706;18.216;2022-12-16T14:09:59;36.05;;;14.07;;
74223;SDS011;62585;49.706;18.216;2022-12-16T14:12:45;28.98;;;13.20;;
74223;SDS011;62585;49.706;18.216;2022-12-16T14:19:29;34.25;;;14.48;;
74223;SDS011;62585;49.706;18.216;2022-12-16T14:25:24;35.75;;;14.40;;
74223;SDS011;62585;49.706;18.216;2022-12-16T14:31:15;40.22;;;15.63;;
74223;SDS011;62585;49.706;18.216;2022-12-16T14:34:04;31.00;;;13.50;;
74223;SDS011;62585;49.706;18.216;2022-12-16T14:36:59;29.67;;;12.82;;
74223;SDS011;62585;49.706;18.216;2022-12-16T14:39:47;31.70;;;16.42;;
74223;SDS011;62585;49.706;18.216;2022-12-16T14:42:32;36.47;;;15.38;;
74223;SDS011;62585;49.706;18.216;2022-12-16T14:51:18;36.25;;;13.65;;
74223;SDS011;62585;49.706;18.216;2022-12-16T14:57:09;38.05;;;16.23;;
74223;SDS011;62585;49.706;18.216;2022-12-16T15:03:38;35.45;;;16.48;;
74223;SDS011;62585;49.706;18.216;2022-12-16T15:06:00;26.02;;;13.00;;
74223;SDS011;62585;49.706;18.216;2022-12-16T15:08:48;45.72;;;17.98;;
74223;SDS011;62585;49.706;18.216;2022-12-16T15:11:35;33.10;;;15.65;;
74223;SDS011;62585;49.706;18.216;2022-12-16T15:14:24;35.90;;;15.63;;
74223;SDS011;62585;49.706;18.216;2022-12-16T15:17:21;34.38;;;15.07;;
74223;SDS011;62585;49.706;18.216;2022-12-16T15:20:31;34.80;;;15.65;;
74223;SDS011;62585;49.706;18.216;2022-12-16T15:23:18;42.28;;;14.90;;
74223;SDS011;62585;49.706;18.216;2022-12-16T15:26:06;31.75;;;15.82;;
74223;SDS011;62585;49.706;18.216;2022-12-16T15:28:51;34.95;;;15.13;;
74223;SDS011;62585;49.706;18.216;2022-12-16T15:31:37;44.25;;;16.95;;
74223;SDS011;62585;49.706;18.216;2022-12-16T15:34:24;36.47;;;16.92;;
74223;SDS011;62585;49.706;18.216;2022-12-16T15:39:59;42.47;;;16.10;;
74223;SDS011;62585;49.706;18.216;2022-12-16T15:42:48;39.25;;;15.95;;
74223;SDS011;62585;49.706;18.216;2022-12-16T15:45:33;45.25;;;18.13;;
74223;SDS011;62585;49.706;18.216;2022-12-16T15:48:19;36.97;;;15.50;;
74223;SDS011;62585;49.706;18.216;2022-12-16T15:51:18;45.65;;;19.00;;
74223;SDS011;62585;49.706;18.216;2022-12-16T15:54:20;40.00;;;17.05;;
74223;SDS011;62585;49.706;18.216;2022-12-16T16:00:20;43.50;;;15.30;;
74223;SDS011;62585;49.706;18.216;2022-12-16T16:03:13;37.33;;;14.77;;
74223;SDS011;62585;49.706;18.216;2022-12-16T16:06:00;34.88;;;16.20;;
74223;SDS011;62585;49.706;18.216;2022-12-16T16:08:49;38.80;;;17.73;;
74223;SDS011;62585;49.706;18.216;2022-12-16T16:11:34;30.25;;;15.85;;
74223;SDS011;62585;49.706;18.216;2022-12-16T16:14:38;42.22;;;17.88;;
74223;SDS011;62585;49.706;18.216;2022-12-16T16:17:22;42.10;;;17.10;;
74223;SDS011;62585;49.706;18.216;2022-12-16T16:20:08;56.20;;;22.95;;
74223;SDS011;62585;49.706;18.216;2022-12-16T16:23:00;32.83;;;15.93;;
74223;SDS011;62585;49.706;18.216;2022-12-16T16:25:45;47.97;;;18.25;;
74223;SDS011;62585;49.706;18.216;2022-12-16T16:28:31;52.60;;;20.38;;
74223;SDS011;62585;49.706;18.216;2022-12-16T16:31:16;44.80;;;18.88;;
74223;SDS011;62585;49.706;18.216;2022-12-16T16:34:00;45.70;;;18.52;;
74223;SDS011;62585;49.706;18.216;2022-12-16T16:36:46;36.65;;;19.00;;
74223;SDS011;62585;49.706;18.216;2022-12-16T16:39:35;39.13;;;17.80;;
74223;SDS011;62585;49.706;18.216;2022-12-16T16:42:19;49.58;;;18.65;;
74223;SDS011;62585;49.706;18.216;2022-12-16T16:45:04;39.65;;;17.75;;
74223;SDS011;62585;49.706;18.216;2022-12-16T16:48:00;36.88;;;16.52;;
74223;SDS011;62585;49.706;18.216;2022-12-16T16:50:49;37.65;;;17.63;;
74223;SDS011;62585;49.706;18.216;2022-12-16T16:53:34;36.72;;;16.92;;
74223;SDS011;62585;49.706;18.216;2022-12-16T16:56:18;37.95;;;17.25;;
74223;SDS011;62585;49.706;18.216;2022-12-16T16:59:03;46.67;;;18.33;;
74223;SDS011;62585;49.706;18.216;2022-12-16T17:01:47;39.30;;;16.58;;
74223;SDS011;62585;49.706;18.216;2022-12-16T17:04:32;43.70;;;17.90;;
74223;SDS011;62585;49.706;18.216;2022-12-16T17:07:16;46.70;;;19.45;;
74223;SDS011;62585;49.706;18.216;2022-12-16T17:10:17;38.65;;;16.05;;
74223;SDS011;62585;49.706;18.216;2022-12-16T17:13:02;45.78;;;17.95;;
74223;SDS011;62585;49.706;18.216;2022-12-16T17:15:46;46.35;;;16.77;;
74223;SDS011;62585;49.706;18.216;2022-12-16T17:18:31;46.63;;;20.63;;
74223;SDS011;62585;49.706;18.216;2022-12-16T17:21:15;37.92;;;17.55;;
74223;SDS011;62585;49.706;18.216;2022-12-16T17:23:59;42.15;;;16.70;;
74223;SDS011;62585;49.706;18.216;2022-12-16T17:26:44;54.00;;;20.92;;
74223;SDS011;62585;49.706;18.216;2022-12-16T17:29:28;44.63;;;19.65;;
74223;SDS011;62585;49.706;18.216;2022-12-16T17:32:12;53.03;;;20.73;;
74223;SDS011;62585;49.706;18.216;2022-12-16T17:34:57;46.83;;;17.27;;
74223;SDS011;62585;49.706;18.216;2022-12-16T17:37:42;38.60;;;17.17;;
74223;SDS011;62585;49.706;18.216;2022-12-16T17:40:26;43.47;;;17.20;;
74223;SDS011;62585;49.706;18.216;2022-12-16T17:43:11;42.15;;;19.10;;
74223;SDS011;62585;49.706;18.216;2022-12-16T17:48:39;54.03;;;18.08;;
74223;SDS011;62585;49.706;18.216;2022-12-16T17:51:24;37.35;;;17.20;;
74223;SDS011;62585;49.706;18.216;2022-12-16T17:54:08;40.53;;;17.08;;
74223;SDS011;62585;49.706;18.216;2022-12-16T17:56:53;44.60;;;17.98;;
74223;SDS011;62585;49.706;18.216;2022-12-16T17:59:37;39.20;;;17.00;;
74223;SDS011;62585;49.706;18.216;2022-12-16T18:02:21;51.28;;;18.23;;
74223;SDS011;62585;49.706;18.216;2022-12-16T18:05:06;56.67;;;21.70;;
74223;SDS011;62585;49.706;18.216;2022-12-16T18:07:51;48.20;;;20.23;;
74223;SDS011;62585;49.706;18.216;2022-12-16T18:10:35;35.92;;;17.58;;
74223;SDS011;62585;49.706;18.216;2022-12-16T18:13:19;47.20;;;20.88;;
74223;SDS011;62585;49.706;18.216;2022-12-16T18:16:04;44.10;;;18.80;;
74223;SDS011;62585;49.706;18.216;2022-12-16T18:18:48;47.17;;;18.88;;
74223;SDS011;62585;49.706;18.216;2022-12-16T18:21:33;46.53;;;17.85;;